Terminal Aerodrome Forecast
Issued by NWS Cleveland, OH

Home | Current Version | Previous Version | Graphics & Text | Print | Product List | Glossary Off
Versions: 1 2 3 4 5 6 7 8 9 10 11 12 13 14 15 16 17 18 19 20 21

984
FTUS41 KCLE 191414 AAB
TAFMFD
TAF AMD
KMFD 191414Z 1914/2012 30008KT P6SM OVC045
      TEMPO 1914/1918 OVC025
     FM191800 29010G20KT P6SM OVC045
     FM192200 29012KT P6SM BKN035
     FM200800 24009KT P6SM SCT250=

USA.gov is the U.S. government's official web portal to all federal, state and local government web resources and services.